sensor_id;sensor_type;location;lat;lon;timestamp;pressure;altitude;pressure_sealevel;temperature;humidity
64080;BME280;51042;49.696;10.808;2023-02-01T00:01:58;98808.78;;;2.90;100.00
64080;BME280;51042;49.696;10.808;2023-02-01T00:04:24;98814.22;;;2.93;100.00
64080;BME280;51042;49.696;10.808;2023-02-01T00:06:50;98809.22;;;2.95;100.00
64080;BME280;51042;49.696;10.808;2023-02-01T00:09:15;98813.47;;;2.96;100.00
64080;BME280;51042;49.696;10.808;2023-02-01T00:11:40;98813.13;;;2.98;100.00
64080;BME280;51042;49.696;10.808;2023-02-01T00:14:06;98805.75;;;2.98;100.00
64080;BME280;51042;49.696;10.808;2023-02-01T00:16:31;98808.88;;;3.00;100.00
64080;BME280;51042;49.696;10.808;2023-02-01T00:19:13;98800.38;;;3.02;100.00
64080;BME280;51042;49.696;10.808;2023-02-01T00:21:39;98798.44;;;3.02;100.00
64080;BME280;51042;49.696;10.808;2023-02-01T00:24:04;98806.56;;;3.02;100.00
64080;BME280;51042;49.696;10.808;2023-02-01T00:26:31;98796.09;;;3.04;100.00
64080;BME280;51042;49.696;10.808;2023-02-01T00:28:57;98793.03;;;3.06;100.00
64080;BME280;51042;49.696;10.808;2023-02-01T00:31:22;98785.31;;;3.08;100.00
64080;BME280;51042;49.696;10.808;2023-02-01T00:33:48;98782.22;;;3.09;100.00
64080;BME280;51042;49.696;10.808;2023-02-01T00:36:13;98776.81;;;3.09;100.00
64080;BME280;51042;49.696;10.808;2023-02-01T00:38:39;98783.41;;;3.12;100.00
64080;BME280;51042;49.696;10.808;2023-02-01T00:41:05;98785.75;;;3.13;100.00
64080;BME280;51042;49.696;10.808;2023-02-01T00:43:31;98786.16;;;3.15;100.00
64080;BME280;51042;49.696;10.808;2023-02-01T00:45:56;98779.56;;;3.16;100.00
64080;BME280;51042;49.696;10.808;2023-02-01T00:48:22;98781.47;;;3.16;100.00
64080;BME280;51042;49.696;10.808;2023-02-01T00:50:47;98775.69;;;3.17;100.00
64080;BME280;51042;49.696;10.808;2023-02-01T00:53:12;98775.31;;;3.19;100.00
64080;BME280;51042;49.696;10.808;2023-02-01T00:55:37;98777.66;;;3.20;100.00
64080;BME280;51042;49.696;10.808;2023-02-01T00:58:03;98781.16;;;3.21;100.00
64080;BME280;51042;49.696;10.808;2023-02-01T01:00:30;98780.75;;;3.22;100.00
64080;BME280;51042;49.696;10.808;2023-02-01T01:02:55;98785.41;;;3.22;100.00
64080;BME280;51042;49.696;10.808;2023-02-01T01:05:21;98779.97;;;3.22;100.00
64080;BME280;51042;49.696;10.808;2023-02-01T01:07:46;98773.81;;;3.21;100.00
64080;BME280;51042;49.696;10.808;2023-02-01T01:10:11;98776.88;;;3.20;100.00
64080;BME280;51042;49.696;10.808;2023-02-01T01:12:36;98782.69;;;3.18;100.00
64080;BME280;51042;49.696;10.808;2023-02-01T01:15:01;98779.56;;;3.16;100.00
64080;BME280;51042;49.696;10.808;2023-02-01T01:17:27;98779.56;;;3.16;100.00
64080;BME280;51042;49.696;10.808;2023-02-01T01:19:52;98781.09;;;3.14;100.00
64080;BME280;51042;49.696;10.808;2023-02-01T01:22:17;98773.34;;;3.12;100.00
64080;BME280;51042;49.696;10.808;2023-02-01T01:24:43;98778.75;;;3.12;100.00
64080;BME280;51042;49.696;10.808;2023-02-01T01:27:08;98778.38;;;3.14;100.00
64080;BME280;51042;49.696;10.808;2023-02-01T01:29:33;98787.69;;;3.16;100.00
64080;BME280;51042;49.696;10.808;2023-02-01T01:31:58;98773.75;;;3.18;100.00
64080;BME280;51042;49.696;10.808;2023-02-01T01:34:23;98766.41;;;3.18;100.00
64080;BME280;51042;49.696;10.808;2023-02-01T01:36:48;98764.84;;;3.17;100.00
64080;BME280;51042;49.696;10.808;2023-02-01T01:39:14;98766.78;;;3.17;100.00
64080;BME280;51042;49.696;10.808;2023-02-01T01:41:39;98776.88;;;3.20;100.00
64080;BME280;51042;49.696;10.808;2023-02-01T01:44:05;98779.22;;;3.21;100.00
64080;BME280;51042;49.696;10.808;2023-02-01T01:46:34;98774.94;;;3.20;100.00
64080;BME280;51042;49.696;10.808;2023-02-01T01:49:01;98773.81;;;3.21;100.00
64080;BME280;51042;49.696;10.808;2023-02-01T01:51:28;98759.06;;;3.22;100.00
64080;BME280;51042;49.696;10.808;2023-02-01T01:53:58;98771.84;;;3.22;100.00
64080;BME280;51042;49.696;10.808;2023-02-01T01:56:24;98764.09;;;3.20;100.00
64080;BME280;51042;49.696;10.808;2023-02-01T01:58:49;98762.97;;;3.21;100.00
64080;BME280;51042;49.696;10.808;2023-02-01T02:01:15;98769.91;;;3.22;100.00
64080;BME280;51042;49.696;10.808;2023-02-01T02:03:42;98761.41;;;3.20;100.00
64080;BME280;51042;49.696;10.808;2023-02-01T02:06:51;98758.28;;;3.22;100.00
64080;BME280;51042;49.696;10.808;2023-02-01T02:08:56;98755.97;;;3.20;100.00
64080;BME280;51042;49.696;10.808;2023-02-01T02:11:22;98745.13;;;3.20;100.00
64080;BME280;51042;49.696;10.808;2023-02-01T02:13:50;98744.72;;;3.22;100.00
64080;BME280;51042;49.696;10.808;2023-02-01T02:34:25;98742.84;;;3.29;100.00
64080;BME280;51042;49.696;10.808;2023-02-01T02:39:31;98737.78;;;3.28;100.00
64080;BME280;51042;49.696;10.808;2023-02-01T02:45:38;98733.56;;;3.31;100.00
64080;BME280;51042;49.696;10.808;2023-02-01T02:51:05;98725.84;;;3.33;100.00
64080;BME280;51042;49.696;10.808;2023-02-01T02:56:38;98711.44;;;3.25;100.00
64080;BME280;51042;49.696;10.808;2023-02-01T02:59:24;98699.03;;;3.20;100.00
64080;BME280;51042;49.696;10.808;2023-02-01T03:02:09;98711.03;;;3.19;100.00
64080;BME280;51042;49.696;10.808;2023-02-01T03:04:54;98711.41;;;3.18;100.00
64080;BME280;51042;49.696;10.808;2023-02-01T03:10:07;98710.22;;;3.15;100.00
64080;BME280;51042;49.696;10.808;2023-02-01T03:12:36;98720.69;;;3.17;100.00
64080;BME280;51042;49.696;10.808;2023-02-01T03:15:26;98681.94;;;3.13;100.00
64080;BME280;51042;49.696;10.808;2023-02-01T03:17:56;98687.34;;;3.09;100.00
64080;BME280;51042;49.696;10.808;2023-02-01T03:20:22;98707.09;;;3.10;100.00
64080;BME280;51042;49.696;10.808;2023-02-01T03:22:49;98690.44;;;3.11;100.00
64080;BME280;51042;49.696;10.808;2023-02-01T03:25:27;98688.91;;;3.14;100.00
64080;BME280;51042;49.696;10.808;2023-02-01T03:27:57;98711.75;;;3.16;100.00
64080;BME280;51042;49.696;10.808;2023-02-01T03:30:24;98708.69;;;3.18;100.00
64080;BME280;51042;49.696;10.808;2023-02-01T03:32:51;98712.97;;;3.19;100.00
64080;BME280;51042;49.696;10.808;2023-02-01T03:35:29;98700.97;;;3.20;100.00
64080;BME280;51042;49.696;10.808;2023-02-01T03:37:56;98704.06;;;3.22;100.00
64080;BME280;51042;49.696;10.808;2023-02-01T03:40:25;98699.81;;;3.21;100.00
64080;BME280;51042;49.696;10.808;2023-02-01T03:42:52;98696.69;;;3.22;100.00
64080;BME280;51042;49.696;10.808;2023-02-01T03:45:21;98694.75;;;3.23;100.00
64080;BME280;51042;49.696;10.808;2023-02-01T03:47:48;98681.22;;;3.23;100.00
64080;BME280;51042;49.696;10.808;2023-02-01T03:50:16;98690.91;;;3.20;100.00
64080;BME280;51042;49.696;10.808;2023-02-01T03:55:26;98693.56;;;3.17;100.00
64080;BME280;51042;49.696;10.808;2023-02-01T03:58:00;98686.97;;;3.14;100.00
64080;BME280;51042;49.696;10.808;2023-02-01T04:00:27;98692.00;;;3.12;100.00
64080;BME280;51042;49.696;10.808;2023-02-01T04:02:53;98681.53;;;3.11;100.00
64080;BME280;51042;49.696;10.808;2023-02-01T04:05:18;98688.13;;;3.10;100.00
64080;BME280;51042;49.696;10.808;2023-02-01T04:07:43;98699.34;;;3.08;100.00
64080;BME280;51042;49.696;10.808;2023-02-01T04:10:09;98680.34;;;3.08;100.00
64080;BME280;51042;49.696;10.808;2023-02-01T04:12:35;98679.22;;;3.09;100.00
64080;BME280;51042;49.696;10.808;2023-02-01T04:15:00;98672.19;;;3.05;100.00
64080;BME280;51042;49.696;10.808;2023-02-01T04:17:25;98676.06;;;3.04;100.00
64080;BME280;51042;49.696;10.808;2023-02-01T04:19:50;98669.88;;;3.03;100.00
64080;BME280;51042;49.696;10.808;2023-02-01T04:22:16;98669.88;;;3.03;100.00
64080;BME280;51042;49.696;10.808;2023-02-01T04:24:41;98678.78;;;3.04;100.00
64080;BME280;51042;49.696;10.808;2023-02-01T04:27:06;98671.03;;;3.06;100.00
64080;BME280;51042;49.696;10.808;2023-02-01T04:29:31;98677.25;;;3.06;100.00
64080;BME280;51042;49.696;10.808;2023-02-01T04:31:56;98678.81;;;3.07;100.00
64080;BME280;51042;49.696;10.808;2023-02-01T04:34:21;98678.44;;;3.09;100.00
64080;BME280;51042;49.696;10.808;2023-02-01T04:36:48;98679.59;;;3.08;100.00
64080;BME280;51042;49.696;10.808;2023-02-01T04:39:13;98674.56;;;3.10;100.00
64080;BME280;51042;49.696;10.808;2023-02-01T04:41:38;98682.69;;;3.10;100.00
64080;BME280;51042;49.696;10.808;2023-02-01T04:44:03;98676.09;;;3.11;100.00
64080;BME280;51042;49.696;10.808;2023-02-01T04:46:29;98675.31;;;3.10;100.00
64080;BME280;51042;49.696;10.808;2023-02-01T04:48:54;98671.06;;;3.09;100.00
64080;BME280;51042;49.696;10.808;2023-02-01T04:51:19;98672.22;;;3.08;100.00
64080;BME280;51042;49.696;10.808;2023-02-01T04:53:44;98671.81;;;3.06;100.00
64080;BME280;51042;49.696;10.808;2023-02-01T04:56:09;98673.00;;;3.09;100.00
64080;BME280;51042;49.696;10.808;2023-02-01T04:58:35;98666.03;;;3.11;100.00
64080;BME280;51042;49.696;10.808;2023-02-01T05:01:02;98671.47;;;3.11;100.00
64080;BME280;51042;49.696;10.808;2023-02-01T05:03:29;98664.09;;;3.12;100.00
64080;BME280;51042;49.696;10.808;2023-02-01T05:05:54;98654.41;;;3.11;100.00
64080;BME280;51042;49.696;10.808;2023-02-01T05:08:19;98659.81;;;3.07;100.00
64080;BME280;51042;49.696;10.808;2023-02-01T05:10:47;98664.84;;;3.05;100.00
64080;BME280;51042;49.696;10.808;2023-02-01T05:13:12;98662.13;;;3.05;100.00
64080;BME280;51042;49.696;10.808;2023-02-01T05:15:56;98662.53;;;3.04;100.00
64080;BME280;51042;49.696;10.808;2023-02-01T05:18:21;98663.63;;;2.99;100.00
64080;BME280;51042;49.696;10.808;2023-02-01T05:20:46;98664.78;;;2.98;100.00
64080;BME280;51042;49.696;10.808;2023-02-01T05:23:11;98677.19;;;2.96;100.00
64080;BME280;51042;49.696;10.808;2023-02-01T05:25:36;98658.56;;;2.94;100.00
64080;BME280;51042;49.696;10.808;2023-02-01T05:28:02;98658.94;;;2.93;100.00
64080;BME280;51042;49.696;10.808;2023-02-01T05:30:27;98662.84;;;2.92;100.00
64080;BME280;51042;49.696;10.808;2023-02-01T05:32:52;98662.78;;;2.88;100.00
64080;BME280;51042;49.696;10.808;2023-02-01T05:35:17;98651.16;;;2.87;100.00
64080;BME280;51042;49.696;10.808;2023-02-01T05:37:43;98651.53;;;2.86;100.00
64080;BME280;51042;49.696;10.808;2023-02-01T05:40:13;98657.34;;;2.84;100.00
64080;BME280;51042;49.696;10.808;2023-02-01T05:42:42;98649.59;;;2.83;100.00
64080;BME280;51042;49.696;10.808;2023-02-01T05:45:07;98644.56;;;2.81;100.00
64080;BME280;51042;49.696;10.808;2023-02-01T05:47:32;98650.38;;;2.80;100.00
64080;BME280;51042;49.696;10.808;2023-02-01T05:49:58;98634.84;;;2.77;100.00
64080;BME280;51042;49.696;10.808;2023-02-01T05:52:23;98638.72;;;2.76;100.00
64080;BME280;51042;49.696;10.808;2023-02-01T05:54:48;98643.34;;;2.72;100.00
64080;BME280;51042;49.696;10.808;2023-02-01T05:57:13;98637.88;;;2.68;100.00
64080;BME280;51042;49.696;10.808;2023-02-01T05:59:39;98644.47;;;2.67;100.00
64080;BME280;51042;49.696;10.808;2023-02-01T06:02:06;98647.97;;;2.68;100.00
64080;BME280;51042;49.696;10.808;2023-02-01T06:04:31;98653.38;;;2.68;100.00
64080;BME280;51042;49.696;10.808;2023-02-01T06:06:57;98659.94;;;2.67;100.00
64080;BME280;51042;49.696;10.808;2023-02-01T06:09:22;98658.78;;;2.68;100.00
64080;BME280;51042;49.696;10.808;2023-02-01T06:11:47;98649.50;;;2.69;100.00
64080;BME280;51042;49.696;10.808;2023-02-01T06:14:12;98648.75;;;2.72;100.00
64080;BME280;51042;49.696;10.808;2023-02-01T06:16:37;98647.19;;;2.71;100.00
64080;BME280;51042;49.696;10.808;2023-02-01T06:19:02;98641.38;;;2.69;100.00
64080;BME280;51042;49.696;10.808;2023-02-01T06:21:28;98649.88;;;2.67;100.00
64080;BME280;51042;49.696;10.808;2023-02-01T06:23:53;98651.03;;;2.66;100.00
64080;BME280;51042;49.696;10.808;2023-02-01T06:26:19;98653.75;;;2.66;100.00
64080;BME280;51042;49.696;10.808;2023-02-01T06:28:44;98651.81;;;2.67;100.00
64080;BME280;51042;49.696;10.808;2023-02-01T06:31:10;98654.53;;;2.67;100.00
64080;BME280;51042;49.696;10.808;2023-02-01T06:33:36;98650.25;;;2.66;100.00
64080;BME280;51042;49.696;10.808;2023-02-01T06:36:03;98641.34;;;2.65;100.00
64080;BME280;51042;49.696;10.808;2023-02-01T06:38:29;98649.47;;;2.65;100.00
64080;BME280;51042;49.696;10.808;2023-02-01T06:40:55;98638.63;;;2.65;100.00
64080;BME280;51042;49.696;10.808;2023-02-01T06:43:21;98638.63;;;2.62;100.00
64080;BME280;51042;49.696;10.808;2023-02-01T06:45:46;98638.59;;;2.58;100.00
64080;BME280;51042;49.696;10.808;2023-02-01T06:48:11;98643.22;;;2.58;100.00
64080;BME280;51042;49.696;10.808;2023-02-01T06:50:36;98644.75;;;2.55;100.00
64080;BME280;51042;49.696;10.808;2023-02-01T06:53:02;98638.56;;;2.55;100.00
64080;BME280;51042;49.696;10.808;2023-02-01T06:55:27;98643.22;;;2.54;100.00
64080;BME280;51042;49.696;10.808;2023-02-01T06:57:55;98637.41;;;2.56;100.00
64080;BME280;51042;49.696;10.808;2023-02-01T07:00:21;98644.00;;;2.58;100.00
64080;BME280;51042;49.696;10.808;2023-02-01T07:02:47;98647.13;;;2.60;100.00
64080;BME280;51042;49.696;10.808;2023-02-01T07:05:12;98652.91;;;2.62;100.00
64080;BME280;51042;49.696;10.808;2023-02-01T07:07:37;98662.25;;;2.65;100.00
64080;BME280;51042;49.696;10.808;2023-02-01T07:10:02;98656.84;;;2.68;100.00
64080;BME280;51042;49.696;10.808;2023-02-01T07:12:27;98656.47;;;2.70;100.00
64080;BME280;51042;49.696;10.808;2023-02-01T07:14:53;98655.31;;;2.71;100.00
64080;BME280;51042;49.696;10.808;2023-02-01T07:17:18;98658.41;;;2.69;100.00
64080;BME280;51042;49.696;10.808;2023-02-01T07:19:43;98664.22;;;2.68;100.00
64080;BME280;51042;49.696;10.808;2023-02-01T07:22:08;98661.53;;;2.71;100.00
64080;BME280;51042;49.696;10.808;2023-02-01T07:24:33;98672.00;;;2.76;100.00
64080;BME280;51042;49.696;10.808;2023-02-01T07:26:59;98663.91;;;2.80;100.00
64080;BME280;51042;49.696;10.808;2023-02-01T07:29:24;98671.28;;;2.86;100.00
64080;BME280;51042;49.696;10.808;2023-02-01T07:31:49;98660.50;;;2.90;100.00
64080;BME280;51042;49.696;10.808;2023-02-01T07:34:14;98644.59;;;2.88;100.00
64080;BME280;51042;49.696;10.808;2023-02-01T07:36:39;98666.28;;;2.85;100.00
64080;BME280;51042;49.696;10.808;2023-02-01T07:39:05;98659.66;;;2.86;100.00
64080;BME280;51042;49.696;10.808;2023-02-01T07:41:30;98654.28;;;2.90;100.00
64080;BME280;51042;49.696;10.808;2023-02-01T07:43:55;98643.88;;;2.92;100.00
64080;BME280;51042;49.696;10.808;2023-02-01T07:46:21;98646.94;;;2.90;100.00
64080;BME280;51042;49.696;10.808;2023-02-01T07:48:46;98641.13;;;2.88;100.00
64080;BME280;51042;49.696;10.808;2023-02-01T07:51:12;98640.75;;;2.90;100.00
64080;BME280;51042;49.696;10.808;2023-02-01T07:53:38;98636.53;;;2.96;100.00
64080;BME280;51042;49.696;10.808;2023-02-01T07:56:08;98630.00;;;3.11;100.00
64080;BME280;51042;49.696;10.808;2023-02-01T07:58:35;98638.59;;;3.20;100.00
64080;BME280;51042;49.696;10.808;2023-02-01T08:01:00;98641.72;;;3.29;100.00
64080;BME280;51042;49.696;10.808;2023-02-01T08:03:43;98642.56;;;3.44;100.00
64080;BME280;51042;49.696;10.808;2023-02-01T08:06:09;98636.78;;;3.52;100.00
64080;BME280;51042;49.696;10.808;2023-02-01T08:08:34;98626.31;;;3.47;100.00
64080;BME280;51042;49.696;10.808;2023-02-01T08:11:00;98606.16;;;3.45;100.00
64080;BME280;51042;49.696;10.808;2023-02-01T08:13:25;98601.13;;;3.43;100.00
64080;BME280;51042;49.696;10.808;2023-02-01T08:15:50;98603.44;;;3.45;100.00
64080;BME280;51042;49.696;10.808;2023-02-01T08:18:15;98608.13;;;3.51;100.00
64080;BME280;51042;49.696;10.808;2023-02-01T08:20:42;98615.91;;;3.67;100.00
64080;BME280;51042;49.696;10.808;2023-02-01T08:23:10;98611.66;;;3.73;100.00
64080;BME280;51042;49.696;10.808;2023-02-01T08:25:35;98623.69;;;3.76;100.00
64080;BME280;51042;49.696;10.808;2023-02-01T08:28:01;98626.81;;;3.85;100.00
64080;BME280;51042;49.696;10.808;2023-02-01T08:30:26;98628.03;;;4.08;100.00
64080;BME280;51042;49.696;10.808;2023-02-01T08:32:52;98644.69;;;4.07;100.00
64080;BME280;51042;49.696;10.808;2023-02-01T08:35:17;98632.25;;;3.88;100.00
64080;BME280;51042;49.696;10.808;2023-02-01T08:37:42;98652.03;;;3.92;100.00
64080;BME280;51042;49.696;10.808;2023-02-01T08:40:08;98648.53;;;3.88;100.00
64080;BME280;51042;49.696;10.808;2023-02-01T08:42:33;98645.41;;;3.79;100.00
64080;BME280;51042;49.696;10.808;2023-02-01T08:45:17;98648.50;;;3.74;100.00
64080;BME280;51042;49.696;10.808;2023-02-01T08:47:43;98631.47;;;3.81;100.00
64080;BME280;51042;49.696;10.808;2023-02-01T08:50:09;98650.09;;;3.96;100.00
64080;BME280;51042;49.696;10.808;2023-02-01T08:52:34;98662.56;;;4.19;100.00
64080;BME280;51042;49.696;10.808;2023-02-01T08:54:59;98656.00;;;4.59;99.61
64080;BME280;51042;49.696;10.808;2023-02-01T08:57:25;98662.56;;;4.97;95.52
64080;BME280;51042;49.696;10.808;2023-02-01T08:59:50;98661.41;;;4.98;94.60
64080;BME280;51042;49.696;10.808;2023-02-01T09:02:15;98666.81;;;5.08;93.94
64080;BME280;51042;49.696;10.808;2023-02-01T09:04:41;98654.75;;;5.16;94.04
64080;BME280;51042;49.696;10.808;2023-02-01T09:07:06;98667.22;;;5.00;95.16
64080;BME280;51042;49.696;10.808;2023-02-01T09:09:32;98680.81;;;5.07;95.34
64080;BME280;51042;49.696;10.808;2023-02-01T09:11:57;98684.69;;;5.13;95.33
64080;BME280;51042;49.696;10.808;2023-02-01T09:14:22;98696.34;;;5.03;96.00
64080;BME280;51042;49.696;10.808;2023-02-01T09:16:47;98682.41;;;4.86;95.97
64080;BME280;51042;49.696;10.808;2023-02-01T09:19:12;98694.41;;;4.89;98.85
64080;BME280;51042;49.696;10.808;2023-02-01T09:21:37;98683.94;;;4.98;98.76
64080;BME280;51042;49.696;10.808;2023-02-01T09:24:03;98695.56;;;4.95;96.97
64080;BME280;51042;49.696;10.808;2023-02-01T09:26:29;98694.81;;;4.91;97.01
64080;BME280;51042;49.696;10.808;2023-02-01T09:28:54;98693.66;;;4.85;96.61
64080;BME280;51042;49.696;10.808;2023-02-01T09:31:19;98706.84;;;4.72;98.07
64080;BME280;51042;49.696;10.808;2023-02-01T09:33:44;98690.16;;;4.60;98.53
64080;BME280;51042;49.696;10.808;2023-02-01T09:36:10;98695.97;;;4.51;98.78
64080;BME280;51042;49.696;10.808;2023-02-01T09:38:35;98694.81;;;4.52;97.09
64080;BME280;51042;49.696;10.808;2023-02-01T09:41:00;98713.84;;;4.91;95.71
64080;BME280;51042;49.696;10.808;2023-02-01T09:43:47;98705.25;;;5.31;91.83
64080;BME280;51042;49.696;10.808;2023-02-01T09:46:18;98707.44;;;5.72;89.06
64080;BME280;51042;49.696;10.808;2023-02-01T09:48:45;98715.22;;;5.73;87.77
64080;BME280;51042;49.696;10.808;2023-02-01T09:51:13;98725.81;;;5.47;89.29
64080;BME280;51042;49.696;10.808;2023-02-01T09:53:41;98712.22;;;5.40;91.49
64080;BME280;51042;49.696;10.808;2023-02-01T09:56:17;98714.97;;;5.32;90.91
64080;BME280;51042;49.696;10.808;2023-02-01T09:59:04;98720.44;;;5.18;91.15
64080;BME280;51042;49.696;10.808;2023-02-01T10:01:31;98728.19;;;5.27;91.08
64080;BME280;51042;49.696;10.808;2023-02-01T10:04:03;98727.44;;;5.23;90.45
64080;BME280;51042;49.696;10.808;2023-02-01T10:06:33;98734.44;;;5.17;87.86
64080;BME280;51042;49.696;10.808;2023-02-01T10:22:26;98735.19;;;5.28;88.85
64080;BME280;51042;49.696;10.808;2023-02-01T10:25:00;98742.91;;;5.44;88.35
64080;BME280;51042;49.696;10.808;2023-02-01T10:27:33;98753.44;;;5.42;87.81
64080;BME280;51042;49.696;10.808;2023-02-01T10:30:01;98744.06;;;5.50;87.54
64080;BME280;51042;49.696;10.808;2023-02-01T10:32:31;98735.13;;;5.49;88.17
64080;BME280;51042;49.696;10.808;2023-02-01T10:35:01;98746.06;;;5.42;88.63
64080;BME280;51042;49.696;10.808;2023-02-01T10:37:31;98735.53;;;5.44;89.28
64080;BME280;51042;49.696;10.808;2023-02-01T10:39:57;98729.72;;;5.46;88.92
64080;BME280;51042;49.696;10.808;2023-02-01T10:42:27;98746.84;;;5.36;90.19
64080;BME280;51042;49.696;10.808;2023-02-01T10:44:54;98726.63;;;5.40;90.41
64080;BME280;51042;49.696;10.808;2023-02-01T10:47:21;98742.50;;;5.59;88.55
64080;BME280;51042;49.696;10.808;2023-02-01T10:54:55;98720.69;;;5.70;86.84
64080;BME280;51042;49.696;10.808;2023-02-01T10:57:24;98731.19;;;5.68;86.54
64080;BME280;51042;49.696;10.808;2023-02-01T10:59:51;98716.41;;;5.72;85.78
64080;BME280;51042;49.696;10.808;2023-02-01T11:02:25;98715.66;;;5.65;85.45
64080;BME280;51042;49.696;10.808;2023-02-01T11:04:58;98713.28;;;5.74;85.06
64080;BME280;51042;49.696;10.808;2023-02-01T11:07:23;98716.75;;;5.78;84.36
64080;BME280;51042;49.696;10.808;2023-02-01T11:09:57;98709.34;;;5.86;83.45
64080;BME280;51042;49.696;10.808;2023-02-01T11:12:39;98701.56;;;5.91;82.34
64080;BME280;51042;49.696;10.808;2023-02-01T11:17:39;98697.25;;;5.97;83.36
64080;BME280;51042;49.696;10.808;2023-02-01T11:20:16;98681.31;;;5.99;82.64
64080;BME280;51042;49.696;10.808;2023-02-01T11:26:14;98686.41;;;5.94;83.59
64080;BME280;51042;49.696;10.808;2023-02-01T11:28:32;98687.13;;;6.05;83.93
64080;BME280;51042;49.696;10.808;2023-02-01T11:31:02;98680.50;;;6.02;81.91
64080;BME280;51042;49.696;10.808;2023-02-01T11:33:52;98675.47;;;5.97;82.01
64080;BME280;51042;49.696;10.808;2023-02-01T11:36:27;98678.19;;;5.97;82.46
64080;BME280;51042;49.696;10.808;2023-02-01T11:39:06;98680.16;;;5.93;80.57
64080;BME280;51042;49.696;10.808;2023-02-01T11:41:33;98670.06;;;5.94;80.95
64080;BME280;51042;49.696;10.808;2023-02-01T11:44:00;98685.22;;;5.84;81.68
64080;BME280;51042;49.696;10.808;2023-02-01T11:46:30;98676.00;;;5.64;80.91
64080;BME280;51042;49.696;10.808;2023-02-01T11:51:52;98676.06;;;5.46;81.88
64080;BME280;51042;49.696;10.808;2023-02-01T11:54:24;98680.72;;;5.46;81.92
64080;BME280;51042;49.696;10.808;2023-02-01T12:02:11;98677.63;;;5.40;78.92
64080;BME280;51042;49.696;10.808;2023-02-01T12:12:39;98645.72;;;5.48;79.02
64080;BME280;51042;49.696;10.808;2023-02-01T12:15:13;98647.25;;;5.59;79.62
64080;BME280;51042;49.696;10.808;2023-02-01T12:17:42;98648.00;;;5.56;77.56
64080;BME280;51042;49.696;10.808;2023-02-01T12:23:04;98636.72;;;5.65;76.61
64080;BME280;51042;49.696;10.808;2023-02-01T12:35:44;98631.53;;;5.92;75.96
64080;BME280;51042;49.696;10.808;2023-02-01T12:43:28;98633.53;;;5.73;74.05
64080;BME280;51042;49.696;10.808;2023-02-01T12:46:07;98606.31;;;5.77;74.97
64080;BME280;51042;49.696;10.808;2023-02-01T12:48:35;98618.34;;;5.83;74.90
64080;BME280;51042;49.696;10.808;2023-02-01T12:51:03;98613.28;;;5.89;75.32
64080;BME280;51042;49.696;10.808;2023-02-01T12:53:40;98621.06;;;5.83;75.48
64080;BME280;51042;49.696;10.808;2023-02-01T12:56:09;98605.91;;;5.79;76.07
64080;BME280;51042;49.696;10.808;2023-02-01T12:58:40;98600.50;;;5.71;77.04
64080;BME280;51042;49.696;10.808;2023-02-01T13:01:25;98601.28;;;5.68;76.79
64080;BME280;51042;49.696;10.808;2023-02-01T13:03:54;98592.31;;;5.75;77.38
64080;BME280;51042;49.696;10.808;2023-02-01T13:06:29;98595.84;;;5.68;77.25
64080;BME280;51042;49.696;10.808;2023-02-01T13:11:40;98586.91;;;5.68;78.10
64080;BME280;51042;49.696;10.808;2023-02-01T13:16:43;98584.66;;;5.49;79.03
64080;BME280;51042;49.696;10.808;2023-02-01T13:19:21;98578.09;;;5.43;79.43
64080;BME280;51042;49.696;10.808;2023-02-01T13:21:57;98594.84;;;5.34;79.61
64080;BME280;51042;49.696;10.808;2023-02-01T13:24:29;98594.47;;;5.36;79.99
64080;BME280;51042;49.696;10.808;2023-02-01T13:26:56;98585.53;;;5.35;79.20
64080;BME280;51042;49.696;10.808;2023-02-01T13:29:21;98597.97;;;5.36;79.70
64080;BME280;51042;49.696;10.808;2023-02-01T13:35:17;98584.00;;;5.27;79.58
64080;BME280;51042;49.696;10.808;2023-02-01T13:37:26;98579.31;;;5.31;80.55
64080;BME280;51042;49.696;10.808;2023-02-01T13:42:29;98580.47;;;5.33;79.35
64080;BME280;51042;49.696;10.808;2023-02-01T13:44:57;98575.81;;;5.30;79.30
64080;BME280;51042;49.696;10.808;2023-02-01T13:47:25;98571.50;;;5.37;79.29
64080;BME280;51042;49.696;10.808;2023-02-01T13:49:51;98571.53;;;5.33;79.36
64080;BME280;51042;49.696;10.808;2023-02-01T13:52:23;98574.63;;;5.31;79.95
64080;BME280;51042;49.696;10.808;2023-02-01T13:54:49;98576.97;;;5.33;80.13
64080;BME280;51042;49.696;10.808;2023-02-01T13:57:43;98552.88;;;5.31;79.50
64080;BME280;51042;49.696;10.808;2023-02-01T14:08:09;98558.38;;;5.14;81.84
64080;BME280;51042;49.696;10.808;2023-02-01T14:13:57;98570.84;;;5.11;83.52
64080;BME280;51042;49.696;10.808;2023-02-01T14:23:40;98553.03;;;5.00;83.50
64080;BME280;51042;49.696;10.808;2023-02-01T14:26:07;98563.91;;;4.92;83.32
64080;BME280;51042;49.696;10.808;2023-02-01T14:28:33;98565.47;;;4.90;85.08
64080;BME280;51042;49.696;10.808;2023-02-01T14:31:00;98547.63;;;4.85;83.93
64080;BME280;51042;49.696;10.808;2023-02-01T14:33:26;98553.06;;;4.82;84.75
64080;BME280;51042;49.696;10.808;2023-02-01T14:35:57;98555.78;;;4.82;84.23
64080;BME280;51042;49.696;10.808;2023-02-01T14:38:25;98547.63;;;4.82;83.74
64080;BME280;51042;49.696;10.808;2023-02-01T14:40:50;98564.72;;;4.82;83.29
64080;BME280;51042;49.696;10.808;2023-02-01T14:43:15;98562.75;;;4.83;83.00
64080;BME280;51042;49.696;10.808;2023-02-01T14:45:46;98572.47;;;4.84;83.10
64080;BME280;51042;49.696;10.808;2023-02-01T14:50:45;98563.16;;;4.85;83.19
64080;BME280;51042;49.696;10.808;2023-02-01T14:56:19;98559.69;;;4.81;83.82
64080;BME280;51042;49.696;10.808;2023-02-01T15:00:58;98564.72;;;4.79;83.87
64080;BME280;51042;49.696;10.808;2023-02-01T15:03:39;98562.38;;;4.77;83.24
64080;BME280;51042;49.696;10.808;2023-02-01T15:08:52;98570.56;;;4.70;84.39
64080;BME280;51042;49.696;10.808;2023-02-01T15:11:17;98557.38;;;4.69;84.05